Victoria, Minnesota
Current Conditions -  °F | °C
As of 8:53 AM on Monday 24 Nov 2014 (Local Time) from KFCM Reporting Station
Overcast Overcast  
Wind Chill:   Ceiling: 1500
Heat Index: 22°   Visibility: 10mi
Dew Point: 17°   Wind: 15mph
Humidity: 82%   Direction: 290°WNW
Pressure: 29.41"   Gusts: NA
Location:  44.86°N, 93.66°W
Report Text: KFCM 241453Z 29013KT 10SM OVC015 M06/M08 A2941 RMK AO2 SLP970 I3000 T10561083 51028
Loading
Personal Weather Stations






























Interactive Weather Map New forecast layout! Learn more

10-Day Weather Forecast

Advertisements
Track Severe Weather on mobile